createdAt,value
2023-04-18T00:00:55.614Z,95445.56
2023-04-18T00:03:22.986Z,95441.06
2023-04-18T00:05:51.951Z,95438.47
2023-04-18T00:08:19.014Z,95432.41
2023-04-18T00:10:46.393Z,95434.41
2023-04-18T00:13:13.584Z,95434.38
2023-04-18T00:15:40.984Z,95434.63
2023-04-18T00:18:08.208Z,95430.34
2023-04-18T00:20:35.510Z,95433.34
2023-04-18T00:23:04.070Z,95437.56
2023-04-18T00:25:31.447Z,95429.44
2023-04-18T00:27:58.577Z,95436.97
2023-04-18T00:30:25.754Z,95424.41
2023-04-18T00:32:53.187Z,95425.84
2023-04-18T00:35:20.335Z,95418.59
2023-04-18T00:37:47.461Z,95417.22
2023-04-18T00:40:16.635Z,95423.94
2023-04-18T00:42:43.835Z,95427.13
2023-04-18T00:45:11.614Z,95420.28
2023-04-18T00:47:38.779Z,95427.00
2023-04-18T00:50:08.193Z,95438.25
2023-04-18T00:52:35.535Z,95427.19
2023-04-18T00:55:03.490Z,95420.34
2023-04-18T00:57:32.233Z,95426.41
2023-04-18T01:00:01.128Z,95425.81
2023-04-18T01:02:28.834Z,95432.88
2023-04-18T01:04:56.585Z,95427.41
2023-04-18T01:07:23.753Z,95428.44
2023-04-18T01:09:51.575Z,95428.22
2023-04-18T01:12:18.657Z,95429.06
2023-04-18T01:14:47.315Z,95428.66
2023-04-18T01:17:14.553Z,95434.06
2023-04-18T01:19:41.655Z,95426.22
2023-04-18T01:22:10.455Z,95425.63
2023-04-18T01:24:39.575Z,95429.66
2023-04-18T01:27:06.932Z,95433.88
2023-04-18T01:29:34.034Z,95429.03
2023-04-18T01:32:01.194Z,95437.28
2023-04-18T01:34:28.416Z,95430.47
2023-04-18T01:36:55.572Z,95421.59
2023-04-18T01:39:22.732Z,95429.06
2023-04-18T01:41:51.351Z,95424.00
2023-04-18T01:44:18.436Z,95428.84
2023-04-18T01:46:45.731Z,95424.00
2023-04-18T01:49:13.064Z,95425.03
2023-04-18T01:51:40.353Z,95429.66
2023-04-18T01:54:07.462Z,95419.06
2023-04-18T01:56:34.554Z,95417.63
2023-04-18T01:59:03.112Z,95411.88
2023-04-18T02:01:30.210Z,95411.19
2023-04-18T02:03:57.393Z,95407.59
2023-04-18T02:06:24.779Z,95408.31
2023-04-18T02:08:51.911Z,95420.41
2023-04-18T02:11:19.092Z,95415.66
2023-04-18T02:13:46.192Z,95414.59
2023-04-18T02:16:14.995Z,95416.09
2023-04-18T02:18:43.857Z,95427.97
2023-04-18T02:21:11.031Z,95434.50
2023-04-18T02:23:38.284Z,95438.06
2023-04-18T02:26:05.601Z,95440.34
2023-04-18T02:28:33.026Z,95445.06
2023-04-18T02:31:00.513Z,95444.63
2023-04-18T02:33:29.152Z,95441.91
2023-04-18T02:35:56.345Z,95454.38
2023-04-18T02:38:23.471Z,95448.44
2023-04-18T02:40:50.556Z,95447.19
2023-04-18T02:43:17.716Z,95446.63
2023-04-18T02:45:44.857Z,95453.72
2023-04-18T02:48:11.958Z,95452.56
2023-04-18T02:50:40.488Z,95446.97
2023-04-18T02:53:07.542Z,95450.97
2023-04-18T02:55:34.651Z,95447.63
2023-04-18T02:58:01.795Z,95446.94
2023-04-18T03:00:29.214Z,95453.59
2023-04-18T03:02:56.450Z,95452.22
2023-04-18T03:05:23.765Z,95455.91
2023-04-18T03:07:52.564Z,95455.88
2023-04-18T03:10:19.822Z,95449.25
2023-04-18T03:12:46.955Z,95450.91
2023-04-18T03:15:14.194Z,95446.22
2023-04-18T03:17:42.062Z,95441.19
2023-04-18T03:20:10.172Z,95446.66
2023-04-18T03:22:37.231Z,95447.63
2023-04-18T03:25:07.391Z,95442.66
2023-04-18T03:27:34.573Z,95445.88
2023-04-18T03:30:01.915Z,95441.84
2023-04-18T03:32:29.113Z,95438.97
2023-04-18T03:34:56.171Z,95441.50
2023-04-18T03:37:23.271Z,95438.53
2023-04-18T03:39:50.394Z,95443.81
2023-04-18T03:42:18.918Z,95444.41
2023-04-18T03:44:45.991Z,95445.28
2023-04-18T03:47:13.209Z,95443.66
2023-04-18T03:49:40.336Z,95439.09
2023-04-18T03:52:07.454Z,95444.81
2023-04-18T03:54:34.522Z,95458.13
2023-04-18T03:57:01.641Z,95446.69
2023-04-18T03:59:30.297Z,95450.31
2023-04-18T04:01:57.409Z,95443.34
2023-04-18T04:04:24.800Z,95450.56
2023-04-18T04:06:52.376Z,95452.41
2023-04-18T04:09:19.516Z,95451.03
2023-04-18T04:11:46.595Z,95451.63
2023-04-18T04:14:14.067Z,95454.78
2023-04-18T04:16:43.010Z,95453.53
2023-04-18T04:19:10.357Z,95458.81
2023-04-18T04:21:37.376Z,95461.22
2023-04-18T04:24:04.977Z,95464.81
2023-04-18T04:26:32.137Z,95456.41
2023-04-18T04:28:59.238Z,95460.09
2023-04-18T04:31:26.474Z,95463.75
2023-04-18T04:33:55.053Z,95465.97
2023-04-18T04:36:23.249Z,95469.59
2023-04-18T04:38:50.409Z,95468.53
2023-04-18T04:41:17.616Z,95460.88
2023-04-18T04:43:44.757Z,95471.75
2023-04-18T04:46:12.010Z,95462.63
2023-04-18T04:48:39.093Z,95462.22
2023-04-18T04:51:07.629Z,95473.59
2023-04-18T04:53:36.148Z,95466.16
2023-04-18T04:56:03.353Z,95474.53
2023-04-18T04:58:30.473Z,95464.88
2023-04-18T05:00:57.709Z,95467.97
2023-04-18T05:03:25.126Z,95470.13
2023-04-18T05:05:52.491Z,95475.03
2023-04-18T05:08:20.977Z,95476.69
2023-04-18T05:10:48.052Z,95478.50
2023-04-18T05:13:15.139Z,95479.09
2023-04-18T05:15:42.291Z,95474.03
2023-04-18T05:18:09.558Z,95474.06
2023-04-18T05:20:36.848Z,95467.63
2023-04-18T05:23:04.039Z,95471.06
2023-04-18T05:25:32.892Z,95469.44
2023-04-18T05:28:01.108Z,95467.97
2023-04-18T05:30:28.236Z,95467.38
2023-04-18T05:32:55.366Z,95473.38
2023-04-18T05:35:22.532Z,95482.25
2023-04-18T05:37:49.754Z,95473.16
2023-04-18T05:40:16.854Z,95479.19
2023-04-18T05:42:45.538Z,95479.41
2023-04-18T05:45:12.715Z,95480.13
2023-04-18T05:47:39.884Z,95487.53
2023-04-18T05:50:08.536Z,95492.06
2023-04-18T05:52:37.857Z,95493.78
2023-04-18T05:55:05.597Z,95485.97
2023-04-18T05:57:32.936Z,95485.44
2023-04-18T06:00:01.864Z,95491.03
2023-04-18T06:02:29.224Z,95491.94
2023-04-18T06:04:56.709Z,95494.50
2023-04-18T06:07:24.396Z,95496.81
2023-04-18T06:09:51.683Z,95496.69
2023-04-18T06:12:18.759Z,95495.28
2023-04-18T06:14:45.855Z,95494.94
2023-04-18T06:17:14.691Z,95500.44
2023-04-18T06:19:41.898Z,95506.41
2023-04-18T06:22:09.209Z,95507.03
2023-04-18T06:24:36.337Z,95515.16
2023-04-18T06:27:05.116Z,95506.75
2023-04-18T06:29:33.973Z,95515.44
2023-04-18T06:32:02.266Z,95521.41
2023-04-18T06:34:30.955Z,95522.09
2023-04-18T06:36:58.240Z,95521.16
2023-04-18T06:39:25.423Z,95511.41
2023-04-18T06:41:52.642Z,95524.22
2023-04-18T06:44:19.954Z,95519.97
2023-04-18T06:46:47.181Z,95515.59
2023-04-18T06:49:14.417Z,95521.25
2023-04-18T06:51:42.935Z,95523.09
2023-04-18T06:54:10.114Z,95519.06
2023-04-18T06:56:37.915Z,95520.44
2023-04-18T06:59:05.109Z,95522.34
2023-04-18T07:01:32.655Z,95518.63
2023-04-18T07:03:59.984Z,95518.16
2023-04-18T07:06:27.562Z,95519.19
2023-04-18T07:08:56.156Z,95518.50
2023-04-18T07:11:23.293Z,95519.63
2023-04-18T07:13:50.480Z,95526.75
2023-04-18T07:16:17.834Z,95518.06
2023-04-18T07:18:45.004Z,95529.97
2023-04-18T07:21:12.247Z,95518.63
2023-04-18T07:23:39.441Z,95515.41
2023-04-18T07:26:08.179Z,95523.91
2023-04-18T07:28:35.403Z,95522.19
2023-04-18T07:31:03.411Z,95519.47
2023-04-18T07:33:30.641Z,95520.63
2023-04-18T07:35:57.855Z,95516.50
2023-04-18T07:38:25.122Z,95515.34
2023-04-18T07:40:57.078Z,95512.81
2023-04-18T07:43:26.126Z,95512.38
2023-04-18T07:45:53.858Z,95517.31
2023-04-18T07:48:21.655Z,95513.31
2023-04-18T07:50:48.816Z,95512.16
2023-04-18T07:53:16.131Z,95513.94
2023-04-18T07:55:43.444Z,95501.41
2023-04-18T07:58:10.812Z,95501.94
2023-04-18T08:00:40.090Z,95497.16
2023-04-18T08:03:07.568Z,95494.44
2023-04-18T08:05:35.109Z,95501.78
2023-04-18T08:08:02.451Z,95495.56
2023-04-18T08:10:29.922Z,95487.34
2023-04-18T08:12:57.057Z,95490.28
2023-04-18T08:15:24.174Z,95486.97
2023-04-18T08:17:52.814Z,95490.91
2023-04-18T08:20:20.236Z,95491.00
2023-04-18T08:23:04.826Z,95494.56
2023-04-18T08:25:34.002Z,95490.06
2023-04-18T08:28:01.130Z,95491.09
2023-04-18T08:32:57.322Z,95486.59
2023-04-18T08:35:24.855Z,95486.94
2023-04-18T08:37:52.382Z,95493.53
2023-04-18T08:40:20.005Z,95488.81
2023-04-18T08:42:47.258Z,95499.78
2023-04-18T08:45:14.539Z,95490.22
2023-04-18T08:47:42.534Z,95489.03
2023-04-18T08:50:11.667Z,95494.03
2023-04-18T08:52:40.197Z,95490.84
2023-04-18T08:55:08.998Z,95488.09
2023-04-18T08:57:36.601Z,95490.59
2023-04-18T09:00:04.738Z,95489.50
2023-04-18T09:02:36.775Z,95474.84
2023-04-18T09:05:13.419Z,95494.16
2023-04-18T09:07:41.314Z,95488.31
2023-04-18T09:10:10.083Z,95487.03
2023-04-18T09:12:42.914Z,95484.44
2023-04-18T09:15:12.734Z,95486.41
2023-04-18T09:17:41.822Z,95488.66
2023-04-18T09:20:11.055Z,95483.06
2023-04-18T09:22:50.505Z,95492.22
2023-04-18T09:25:26.010Z,95488.06
2023-04-18T09:27:53.785Z,95479.31
2023-04-18T09:30:34.313Z,95483.00
2023-04-18T09:33:03.122Z,95485.47
2023-04-18T09:35:30.485Z,95487.22
2023-04-18T09:37:59.255Z,95482.78
2023-04-18T09:40:26.495Z,95482.97
2023-04-18T09:42:54.495Z,95477.19
2023-04-18T09:45:22.855Z,95485.38
2023-04-18T09:47:51.035Z,95485.94
2023-04-18T09:50:18.994Z,95490.16
2023-04-18T09:52:47.019Z,95485.75
2023-04-18T09:55:17.607Z,95486.16
2023-04-18T09:57:47.438Z,95488.91
2023-04-18T10:00:24.595Z,95482.13
2023-04-18T10:02:57.377Z,95496.03
2023-04-18T10:05:26.969Z,95491.06
2023-04-18T10:07:55.271Z,95482.06
2023-04-18T10:10:24.927Z,95480.03
2023-04-18T10:12:54.995Z,95482.09
2023-04-18T10:15:25.482Z,95482.63
2023-04-18T10:18:04.331Z,95466.50
2023-04-18T10:20:35.263Z,95474.84
2023-04-18T10:23:35.175Z,95475.75
2023-04-18T10:26:04.631Z,95476.72
2023-04-18T10:28:50.006Z,95466.25
2023-04-18T10:31:17.547Z,95464.13
2023-04-18T10:34:00.707Z,95470.47
2023-04-18T10:36:31.651Z,95472.72
2023-04-18T10:39:01.507Z,95465.97
2023-04-18T10:41:31.973Z,95458.00
2023-04-18T10:44:18.931Z,95456.19
2023-04-18T10:47:20.507Z,95459.56
2023-04-18T10:49:56.579Z,95458.56
2023-04-18T10:52:23.955Z,95456.03
2023-04-18T10:54:59.110Z,95447.94
2023-04-18T10:57:38.401Z,95450.13
2023-04-18T11:00:09.915Z,95453.44
2023-04-18T11:02:37.789Z,95453.69
2023-04-18T11:05:07.520Z,95446.31
2023-04-18T11:07:36.297Z,95447.97
2023-04-18T11:10:04.062Z,95441.13
2023-04-18T11:12:34.658Z,95438.34
2023-04-18T11:15:11.170Z,95431.50
2023-04-18T11:17:39.902Z,95433.06
2023-04-18T11:20:09.634Z,95427.47
2023-04-18T11:22:45.694Z,95434.72
2023-04-18T11:25:13.202Z,95423.69
2023-04-18T11:27:43.296Z,95433.06
2023-04-18T11:30:11.435Z,95429.78
2023-04-18T11:32:38.726Z,95427.19
2023-04-18T11:35:09.629Z,95432.34
2023-04-18T11:37:37.600Z,95426.16
2023-04-18T11:40:06.493Z,95419.56
2023-04-18T11:42:34.887Z,95428.59
2023-04-18T11:45:04.535Z,95427.97
2023-04-18T11:47:34.831Z,95426.41
2023-04-18T11:50:04.691Z,95418.50
2023-04-18T11:52:33.731Z,95410.75
2023-04-18T11:55:13.308Z,95414.19
2023-04-18T11:57:41.130Z,95417.94
2023-04-18T12:00:11.338Z,95416.81
2023-04-18T12:02:41.829Z,95416.56
2023-04-18T12:05:09.958Z,95418.94
2023-04-18T12:07:39.227Z,95427.81
2023-04-18T12:10:09.669Z,95439.88
2023-04-18T12:12:37.288Z,95433.50
2023-04-18T12:15:07.680Z,95426.00
2023-04-18T12:17:36.933Z,95418.56
2023-04-18T12:20:06.331Z,95411.84
2023-04-18T12:22:41.762Z,95412.91
2023-04-18T12:25:20.264Z,95420.25
2023-04-18T12:27:51.859Z,95411.91
2023-04-18T12:30:20.067Z,95420.91
2023-04-18T12:32:50.723Z,95415.38
2023-04-18T12:35:19.414Z,95419.44
2023-04-18T12:37:47.551Z,95416.78
2023-04-18T12:40:15.807Z,95416.28
2023-04-18T12:42:43.314Z,95417.34
2023-04-18T12:45:11.909Z,95416.66
2023-04-18T12:47:40.303Z,95417.72
2023-04-18T12:50:11.606Z,95421.56
2023-04-18T12:52:40.695Z,95408.69
2023-04-18T12:55:09.607Z,95409.81
2023-04-18T12:57:36.988Z,95421.53
2023-04-18T13:00:05.112Z,95419.66
2023-04-18T13:02:32.457Z,95411.19
2023-04-18T13:04:59.911Z,95408.97
2023-04-18T13:07:28.678Z,95420.13
2023-04-18T13:09:55.800Z,95419.28
2023-04-18T13:12:22.936Z,95416.63
2023-04-18T13:14:50.108Z,95411.00
2023-04-18T13:17:17.724Z,95418.81
2023-04-18T13:19:44.944Z,95418.91
2023-04-18T13:22:12.253Z,95421.34
2023-04-18T13:24:40.882Z,95405.72
2023-04-18T13:27:08.343Z,95407.97
2023-04-18T13:29:35.493Z,95399.13
2023-04-18T13:32:02.780Z,95398.19
2023-04-18T13:34:29.970Z,95398.75
2023-04-18T13:36:58.975Z,95397.19
2023-04-18T13:39:26.232Z,95387.84
2023-04-18T13:41:54.921Z,95388.09
2023-04-18T13:44:22.096Z,95388.69
2023-04-18T13:46:49.187Z,95389.28
2023-04-18T13:49:16.466Z,95392.34
2023-04-18T13:51:43.713Z,95378.88
2023-04-18T13:54:10.859Z,95387.97
2023-04-18T13:56:38.080Z,95383.00
2023-04-18T13:59:06.978Z,95383.09
2023-04-18T14:01:34.278Z,95384.44
2023-04-18T14:04:02.868Z,95381.13
2023-04-18T14:06:30.236Z,95387.34
2023-04-18T14:08:57.435Z,95392.00
2023-04-18T14:11:24.719Z,95380.91
2023-04-18T14:13:51.925Z,95392.38
2023-04-18T14:16:20.843Z,95381.38
2023-04-18T14:18:48.176Z,95389.06
2023-04-18T14:21:15.340Z,95385.88
2023-04-18T14:23:42.715Z,95383.19
2023-04-18T14:26:10.777Z,95397.56
2023-04-18T14:28:37.905Z,95386.47
2023-04-18T14:31:05.118Z,95396.16
2023-04-18T14:33:33.738Z,95386.69
2023-04-18T14:36:01.977Z,95383.31
2023-04-18T14:38:29.080Z,95391.50
2023-04-18T14:40:57.418Z,95384.75
2023-04-18T14:43:25.055Z,95399.06
2023-04-18T14:45:52.264Z,95394.78
2023-04-18T14:48:19.607Z,95393.84
2023-04-18T14:50:56.317Z,95395.13
2023-04-18T14:53:23.594Z,95391.44
2023-04-18T14:55:51.175Z,95389.53
2023-04-18T14:58:18.436Z,95398.13
2023-04-18T15:00:45.575Z,95392.88
2023-04-18T15:03:12.862Z,95397.00
2023-04-18T15:05:40.055Z,95400.91
2023-04-18T15:08:09.051Z,95387.00
2023-04-18T15:10:36.274Z,95393.16
2023-04-18T15:13:03.369Z,95395.00
2023-04-18T15:15:30.682Z,95393.53
2023-04-18T15:17:58.054Z,95390.22
2023-04-18T15:20:25.278Z,95386.84
2023-04-18T15:22:52.569Z,95382.69
2023-04-18T15:25:21.388Z,95382.50
2023-04-18T15:27:51.497Z,95385.38
2023-04-18T15:30:19.087Z,95385.00
2023-04-18T15:32:46.281Z,95389.25
2023-04-18T15:35:13.620Z,95393.03
2023-04-18T15:37:40.866Z,95396.00
2023-04-18T15:40:09.390Z,95398.09
2023-04-18T15:42:39.401Z,95398.38
2023-04-18T15:45:07.642Z,95399.66
2023-04-18T15:47:34.947Z,95409.53
2023-04-18T15:50:02.282Z,95404.59
2023-04-18T15:52:29.579Z,95398.81
2023-04-18T15:54:57.963Z,95391.34
2023-04-18T15:57:25.203Z,95404.69
2023-04-18T15:59:53.932Z,95398.34
2023-04-18T16:02:21.286Z,95389.44
2023-04-18T16:04:48.664Z,95397.06
2023-04-18T16:07:17.601Z,95407.44
2023-04-18T16:09:44.864Z,95404.94
2023-04-18T16:12:12.255Z,95399.28
2023-04-18T16:14:39.897Z,95396.88
2023-04-18T16:17:08.539Z,95398.81
2023-04-18T16:19:36.308Z,95404.44
2023-04-18T16:22:03.592Z,95400.06
2023-04-18T16:24:30.756Z,95410.91
2023-04-18T16:26:57.995Z,95409.47
2023-04-18T16:29:25.272Z,95404.50
2023-04-18T16:31:52.602Z,95399.09
2023-04-18T16:34:21.362Z,95406.56
2023-04-18T16:36:50.786Z,95406.72
2023-04-18T16:39:18.484Z,95409.44
2023-04-18T16:41:45.806Z,95403.00
2023-04-18T16:44:13.354Z,95396.91
2023-04-18T16:46:40.929Z,95409.69
2023-04-18T16:49:08.525Z,95410.28
2023-04-18T16:51:38.103Z,95402.19
2023-04-18T16:54:06.058Z,95413.53
2023-04-18T16:56:34.361Z,95409.56
2023-04-18T16:59:01.490Z,95409.72
2023-04-18T17:01:28.684Z,95404.31
2023-04-18T17:03:56.143Z,95405.03
2023-04-18T17:06:23.483Z,95409.31
2023-04-18T17:08:52.163Z,95405.69
2023-04-18T17:11:19.605Z,95406.94
2023-04-18T17:13:47.001Z,95408.06
2023-04-18T17:16:14.289Z,95402.50
2023-04-18T17:18:41.566Z,95407.97
2023-04-18T17:21:08.880Z,95409.63
2023-04-18T17:23:36.361Z,95407.09
2023-04-18T17:26:05.127Z,95411.53
2023-04-18T17:28:32.293Z,95408.31
2023-04-18T17:30:59.454Z,95413.47
2023-04-18T17:33:26.599Z,95419.16
2023-04-18T17:35:53.896Z,95424.91
2023-04-18T17:38:21.181Z,95421.44
2023-04-18T17:40:48.422Z,95412.03
2023-04-18T17:43:17.133Z,95423.13
2023-04-18T17:45:44.246Z,95426.56
2023-04-18T17:48:11.562Z,95420.94
2023-04-18T17:50:38.805Z,95420.63
2023-04-18T17:53:06.047Z,95429.97
2023-04-18T17:55:33.327Z,95434.94
2023-04-18T17:58:00.768Z,95426.53
2023-04-18T18:00:30.717Z,95437.97
2023-04-18T18:02:58.116Z,95441.78
2023-04-18T18:05:25.355Z,95432.44
2023-04-18T18:07:52.700Z,95436.63
2023-04-18T18:10:20.400Z,95436.28
2023-04-18T18:12:47.815Z,95438.56
2023-04-18T18:15:15.815Z,95446.78
2023-04-18T18:17:44.538Z,95448.06
2023-04-18T18:20:12.138Z,95438.63
2023-04-18T18:22:39.280Z,95443.25
2023-04-18T18:25:07.475Z,95450.19
2023-04-18T18:27:34.770Z,95458.53
2023-04-18T18:30:01.999Z,95461.00
2023-04-18T18:32:29.199Z,95461.81
2023-04-18T18:34:57.894Z,95461.72
2023-04-18T18:37:25.197Z,95462.91
2023-04-18T18:39:52.372Z,95461.66
2023-04-18T18:42:19.574Z,95464.94
2023-04-18T18:44:46.674Z,95462.19
2023-04-18T18:47:14.173Z,95471.59
2023-04-18T18:49:41.434Z,95475.47
2023-04-18T18:52:10.032Z,95475.81
2023-04-18T18:54:37.192Z,95481.09
2023-04-18T18:57:04.462Z,95481.88
2023-04-18T18:59:32.909Z,95481.66
2023-04-18T19:02:00.411Z,95496.75
2023-04-18T19:04:28.030Z,95501.03
2023-04-18T19:06:55.372Z,95495.31
2023-04-18T19:09:24.074Z,95497.78
2023-04-18T19:11:51.134Z,95491.72
2023-04-18T19:14:18.433Z,95499.31
2023-04-18T19:16:47.055Z,95495.75
2023-04-18T19:19:14.409Z,95493.50
2023-04-18T19:21:41.753Z,95496.47
2023-04-18T19:24:09.028Z,95497.78
2023-04-18T19:26:38.018Z,95495.78
2023-04-18T19:29:06.873Z,95508.09
2023-04-18T19:31:34.239Z,95505.28
2023-04-18T19:34:01.694Z,95510.91
2023-04-18T19:36:34.956Z,95501.72
2023-04-18T19:39:02.406Z,95499.31
2023-04-18T19:41:29.614Z,95513.75
2023-04-18T19:43:58.138Z,95504.84
2023-04-18T19:46:25.739Z,95505.34
2023-04-18T19:48:53.730Z,95502.44
2023-04-18T19:51:21.298Z,95508.47
2023-04-18T19:53:48.639Z,95509.16
2023-04-18T19:56:15.880Z,95515.53
2023-04-18T19:58:43.652Z,95518.19
2023-04-18T20:01:12.744Z,95515.00
2023-04-18T20:03:40.733Z,95517.53
2023-04-18T20:06:08.750Z,95518.91
2023-04-18T20:08:38.191Z,95517.44
2023-04-18T20:11:07.993Z,95520.63
2023-04-18T20:13:35.651Z,95516.69
2023-04-18T20:16:02.951Z,95520.38
2023-04-18T20:18:31.608Z,95515.19
2023-04-18T20:20:58.766Z,95511.84
2023-04-18T20:23:25.942Z,95518.06
2023-04-18T20:25:53.072Z,95523.34
2023-04-18T20:28:20.312Z,95518.03
2023-04-18T20:30:47.469Z,95517.41
2023-04-18T20:33:14.690Z,95516.00
2023-04-18T20:35:43.789Z,95509.94
2023-04-18T20:38:11.531Z,95522.44
2023-04-18T20:40:39.048Z,95528.28
2023-04-18T20:43:06.209Z,95520.72
2023-04-18T20:45:33.830Z,95517.06
2023-04-18T20:48:01.359Z,95517.50
2023-04-18T20:50:28.651Z,95528.41
2023-04-18T20:52:57.131Z,95516.94
2023-04-18T20:55:24.310Z,95517.28
2023-04-18T20:57:51.550Z,95526.47
2023-04-18T21:00:19.050Z,95527.72
2023-04-18T21:02:46.277Z,95521.31
2023-04-18T21:05:13.531Z,95525.28
2023-04-18T21:07:40.747Z,95525.75
2023-04-18T21:10:10.311Z,95527.72
2023-04-18T21:12:37.510Z,95537.13
2023-04-18T21:15:05.584Z,95539.94
2023-04-18T21:17:32.744Z,95536.50
2023-04-18T21:19:59.916Z,95538.91
2023-04-18T21:22:27.052Z,95542.03
2023-04-18T21:24:54.196Z,95555.84
2023-04-18T21:27:22.730Z,95553.75
2023-04-18T21:29:49.808Z,95562.03
2023-04-18T21:32:17.140Z,95576.66
2023-04-18T21:34:44.294Z,95570.00
2023-04-18T21:37:11.475Z,95574.03
2023-04-18T21:39:38.703Z,95574.53
2023-04-18T21:42:05.931Z,95575.69
2023-04-18T21:44:34.574Z,95576.13
2023-04-18T21:47:01.873Z,95588.72
2023-04-18T21:49:28.932Z,95591.25
2023-04-18T21:51:56.251Z,95589.66
2023-04-18T21:54:23.413Z,95597.56
2023-04-18T21:56:50.517Z,95591.28
2023-04-18T21:59:17.734Z,95595.06
2023-04-18T22:01:46.331Z,95603.06
2023-04-18T22:04:13.806Z,95591.84
2023-04-18T22:06:41.232Z,95600.53
2023-04-18T22:09:08.392Z,95613.38
2023-04-18T22:11:35.656Z,95600.25
2023-04-18T22:14:02.815Z,95595.44
2023-04-18T22:16:30.073Z,95595.69
2023-04-18T22:18:59.207Z,95593.72
2023-04-18T22:21:26.393Z,95597.88
2023-04-18T22:23:53.522Z,95597.00
2023-04-18T22:26:20.826Z,95600.97
2023-04-18T22:28:47.997Z,95604.50
2023-04-18T22:31:15.326Z,95598.63
2023-04-18T22:33:42.490Z,95611.22
2023-04-18T22:36:11.089Z,95611.94
2023-04-18T22:38:38.232Z,95609.31
2023-04-18T22:41:05.550Z,95610.28
2023-04-18T22:43:33.130Z,95611.53
2023-04-18T22:46:00.418Z,95611.16
2023-04-18T22:48:27.650Z,95614.94
2023-04-18T22:50:54.969Z,95615.91
2023-04-18T22:53:23.583Z,95622.38
2023-04-18T22:55:50.865Z,95633.19
2023-04-18T22:58:17.978Z,95631.25
2023-04-18T23:00:46.884Z,95634.34
2023-04-18T23:03:14.128Z,95628.91
2023-04-18T23:05:41.540Z,95638.78
2023-04-18T23:08:08.671Z,95634.31
2023-04-18T23:10:38.173Z,95640.94
2023-04-18T23:13:05.282Z,95645.09
2023-04-18T23:15:32.459Z,95640.41
2023-04-18T23:17:59.861Z,95642.47
2023-04-18T23:20:27.017Z,95643.50
2023-04-18T23:22:54.165Z,95647.09
2023-04-18T23:25:21.397Z,95644.09
2023-04-18T23:27:49.991Z,95649.59
2023-04-18T23:30:18.568Z,95645.34
2023-04-18T23:32:45.717Z,95656.09
2023-04-18T23:35:12.973Z,95658.75
2023-04-18T23:37:40.114Z,95654.94
2023-04-18T23:40:09.050Z,95658.22
2023-04-18T23:42:37.233Z,95657.81
2023-04-18T23:45:07.095Z,95659.28
2023-04-18T23:47:34.247Z,95662.28
2023-04-18T23:50:01.548Z,95662.28
2023-04-18T23:52:28.689Z,95669.81
2023-04-18T23:54:58.766Z,95661.56
2023-04-18T23:57:25.991Z,95663.84
2023-04-18T23:59:53.279Z,95668.28
